Terminal Aerodrome Forecast
Issued by NWS Lake Charles, LA

Home | Current Version | Previous Version | Text Only | Print | Product List | Glossary On
Versions: 1 2 3 4 5 6 7 8 9 10 11 12 13 14 15 16 17 18
000
FTUS44 KLCH 011800 AAA
TAFARA
TAF AMD
KARA 011859Z 0119/0218 15013G20KT P6SM VCTS SCT035CB OVC060
     FM012300 14010KT P6SM VCSH SCT010 OVC035
     FM020100 12006KT 4SM BR VCSH OVC007
     FM020900 10004KT 1SM BR VCSH OVC002=

USA.gov is the U.S. government's official web portal to all federal, state and local government web resources and services.